Terminal Aerodrome Forecast
Issued by NWS Quad Cities IA IL

Home | Current Version | Previous Version | Text Only | Print | Product List | Glossary On
Versions: 1 2 3 4 5 6 7 8 9 10 11 12 13 14 15 16 17 18 19 20 21 22 23 24 25 26 27 28 29 30 31 32 33
000
FTUS43 KDVN 262055 AAB
TAFDBQ
TAF AMD
KDBQ 262055Z 2621/2718 23014G22KT P6SM VCSH SCT020 BKN035
      TEMPO 2621/2622 4SM -SHRA BKN015
     FM270100 24008KT P6SM BKN025
     FM270900 27007KT 5SM BR BKN035
     FM271500 28007KT P6SM BKN250=

USA.gov is the U.S. government's official web portal to all federal, state and local government web resources and services.